sensor_id;sensor_type;location;lat;lon;timestamp;P1;durP1;ratioP1;P2;durP2;ratioP2
58661;SDS011;44432;49.786;22.760;2024-02-15T00:01:13;71.80;;;40.20;;
58661;SDS011;44432;49.786;22.760;2024-02-15T00:03:44;74.90;;;41.10;;
58661;SDS011;44432;49.786;22.760;2024-02-15T00:06:14;72.00;;;42.00;;
58661;SDS011;44432;49.786;22.760;2024-02-15T00:08:45;71.40;;;37.80;;
58661;SDS011;44432;49.786;22.760;2024-02-15T00:11:17;68.60;;;38.10;;
58661;SDS011;44432;49.786;22.760;2024-02-15T00:13:48;83.50;;;39.80;;
58661;SDS011;44432;49.786;22.760;2024-02-15T00:16:20;79.80;;;41.70;;
58661;SDS011;44432;49.786;22.760;2024-02-15T00:18:51;84.70;;;41.60;;
58661;SDS011;44432;49.786;22.760;2024-02-15T00:21:23;74.10;;;37.60;;
58661;SDS011;44432;49.786;22.760;2024-02-15T00:23:53;70.90;;;37.30;;
58661;SDS011;44432;49.786;22.760;2024-02-15T00:26:27;77.30;;;37.00;;
58661;SDS011;44432;49.786;22.760;2024-02-15T00:28:59;65.90;;;37.20;;
58661;SDS011;44432;49.786;22.760;2024-02-15T00:31:30;68.30;;;35.30;;
58661;SDS011;44432;49.786;22.760;2024-02-15T00:34:01;74.30;;;39.20;;
58661;SDS011;44432;49.786;22.760;2024-02-15T00:36:32;60.50;;;35.50;;
58661;SDS011;44432;49.786;22.760;2024-02-15T00:39:03;61.70;;;33.90;;
58661;SDS011;44432;49.786;22.760;2024-02-15T00:41:36;67.10;;;34.90;;
58661;SDS011;44432;49.786;22.760;2024-02-15T00:44:09;58.40;;;31.20;;
58661;SDS011;44432;49.786;22.760;2024-02-15T00:46:40;54.20;;;31.80;;
58661;SDS011;44432;49.786;22.760;2024-02-15T00:49:11;55.00;;;33.10;;
58661;SDS011;44432;49.786;22.760;2024-02-15T00:51:42;51.60;;;31.60;;
58661;SDS011;44432;49.786;22.760;2024-02-15T00:54:12;50.50;;;29.50;;
58661;SDS011;44432;49.786;22.760;2024-02-15T00:56:44;51.50;;;30.70;;
58661;SDS011;44432;49.786;22.760;2024-02-15T00:59:15;44.20;;;27.70;;
58661;SDS011;44432;49.786;22.760;2024-02-15T01:01:46;44.10;;;26.20;;
58661;SDS011;44432;49.786;22.760;2024-02-15T01:04:16;43.60;;;25.50;;
58661;SDS011;44432;49.786;22.760;2024-02-15T01:06:47;45.10;;;26.50;;
58661;SDS011;44432;49.786;22.760;2024-02-15T01:09:19;44.20;;;27.40;;
58661;SDS011;44432;49.786;22.760;2024-02-15T01:11:50;52.70;;;29.20;;
58661;SDS011;44432;49.786;22.760;2024-02-15T01:14:21;47.40;;;29.10;;
58661;SDS011;44432;49.786;22.760;2024-02-15T01:16:52;52.50;;;30.50;;
58661;SDS011;44432;49.786;22.760;2024-02-15T01:19:22;52.60;;;29.60;;
58661;SDS011;44432;49.786;22.760;2024-02-15T01:21:53;51.60;;;29.30;;
58661;SDS011;44432;49.786;22.760;2024-02-15T01:24:26;53.80;;;29.60;;
58661;SDS011;44432;49.786;22.760;2024-02-15T01:26:58;74.10;;;35.80;;
58661;SDS011;44432;49.786;22.760;2024-02-15T01:29:29;60.50;;;34.40;;
58661;SDS011;44432;49.786;22.760;2024-02-15T01:31:59;65.90;;;34.10;;
58661;SDS011;44432;49.786;22.760;2024-02-15T01:34:30;72.10;;;34.50;;
58661;SDS011;44432;49.786;22.760;2024-02-15T01:37:02;77.30;;;36.20;;
58661;SDS011;44432;49.786;22.760;2024-02-15T01:39:33;64.90;;;32.70;;
58661;SDS011;44432;49.786;22.760;2024-02-15T01:42:04;66.70;;;35.50;;
58661;SDS011;44432;49.786;22.760;2024-02-15T01:44:35;56.20;;;32.40;;
58661;SDS011;44432;49.786;22.760;2024-02-15T01:47:07;68.40;;;37.00;;
58661;SDS011;44432;49.786;22.760;2024-02-15T01:49:39;71.80;;;36.70;;
58661;SDS011;44432;49.786;22.760;2024-02-15T01:52:10;56.80;;;32.30;;
58661;SDS011;44432;49.786;22.760;2024-02-15T01:54:42;56.00;;;31.30;;
58661;SDS011;44432;49.786;22.760;2024-02-15T01:57:13;51.60;;;29.50;;
58661;SDS011;44432;49.786;22.760;2024-02-15T01:59:45;50.90;;;30.80;;
58661;SDS011;44432;49.786;22.760;2024-02-15T02:02:16;46.20;;;26.80;;
58661;SDS011;44432;49.786;22.760;2024-02-15T02:04:49;43.10;;;25.40;;
58661;SDS011;44432;49.786;22.760;2024-02-15T02:07:20;44.10;;;25.10;;
58661;SDS011;44432;49.786;22.760;2024-02-15T02:09:51;48.00;;;25.80;;
58661;SDS011;44432;49.786;22.760;2024-02-15T02:12:22;34.50;;;22.00;;
58661;SDS011;44432;49.786;22.760;2024-02-15T02:14:55;35.80;;;21.40;;
58661;SDS011;44432;49.786;22.760;2024-02-15T02:17:26;35.60;;;21.10;;
58661;SDS011;44432;49.786;22.760;2024-02-15T02:19:57;36.50;;;21.90;;
58661;SDS011;44432;49.786;22.760;2024-02-15T02:22:28;44.30;;;25.20;;
58661;SDS011;44432;49.786;22.760;2024-02-15T02:25:01;43.30;;;26.90;;
58661;SDS011;44432;49.786;22.760;2024-02-15T02:27:36;41.70;;;25.80;;
58661;SDS011;44432;49.786;22.760;2024-02-15T02:30:11;47.80;;;27.20;;
58661;SDS011;44432;49.786;22.760;2024-02-15T02:32:48;45.90;;;26.50;;
58661;SDS011;44432;49.786;22.760;2024-02-15T02:35:19;45.50;;;26.40;;
58661;SDS011;44432;49.786;22.760;2024-02-15T02:37:50;42.40;;;25.40;;
58661;SDS011;44432;49.786;22.760;2024-02-15T02:40:22;45.70;;;27.30;;
58661;SDS011;44432;49.786;22.760;2024-02-15T02:42:53;46.30;;;26.80;;
58661;SDS011;44432;49.786;22.760;2024-02-15T02:45:26;51.60;;;26.50;;
58661;SDS011;44432;49.786;22.760;2024-02-15T02:47:57;47.00;;;25.50;;
58661;SDS011;44432;49.786;22.760;2024-02-15T02:50:28;58.40;;;28.90;;
58661;SDS011;44432;49.786;22.760;2024-02-15T02:52:59;47.90;;;25.30;;
58661;SDS011;44432;49.786;22.760;2024-02-15T02:55:30;39.50;;;23.70;;
58661;SDS011;44432;49.786;22.760;2024-02-15T02:58:01;39.30;;;23.10;;
58661;SDS011;44432;49.786;22.760;2024-02-15T03:00:33;42.50;;;23.10;;
58661;SDS011;44432;49.786;22.760;2024-02-15T03:03:05;39.40;;;21.90;;
58661;SDS011;44432;49.786;22.760;2024-02-15T03:05:37;35.40;;;21.00;;
58661;SDS011;44432;49.786;22.760;2024-02-15T03:08:11;38.50;;;22.80;;
58661;SDS011;44432;49.786;22.760;2024-02-15T03:10:42;48.60;;;26.00;;
58661;SDS011;44432;49.786;22.760;2024-02-15T03:13:13;54.40;;;26.10;;
58661;SDS011;44432;49.786;22.760;2024-02-15T03:15:46;44.30;;;25.60;;
58661;SDS011;44432;49.786;22.760;2024-02-15T03:18:18;41.90;;;24.90;;
58661;SDS011;44432;49.786;22.760;2024-02-15T03:20:52;38.60;;;23.70;;
58661;SDS011;44432;49.786;22.760;2024-02-15T03:23:23;37.60;;;21.80;;
58661;SDS011;44432;49.786;22.760;2024-02-15T03:25:54;41.30;;;23.50;;
58661;SDS011;44432;49.786;22.760;2024-02-15T03:28:25;37.50;;;21.60;;
58661;SDS011;44432;49.786;22.760;2024-02-15T03:30:59;35.20;;;21.80;;
58661;SDS011;44432;49.786;22.760;2024-02-15T03:33:30;40.40;;;22.20;;
58661;SDS011;44432;49.786;22.760;2024-02-15T03:38:33;37.00;;;20.30;;
58661;SDS011;44432;49.786;22.760;2024-02-15T03:41:06;37.60;;;20.90;;
58661;SDS011;44432;49.786;22.760;2024-02-15T03:43:37;41.00;;;22.10;;
58661;SDS011;44432;49.786;22.760;2024-02-15T03:46:08;35.70;;;20.20;;
58661;SDS011;44432;49.786;22.760;2024-02-15T03:48:40;36.50;;;21.60;;
58661;SDS011;44432;49.786;22.760;2024-02-15T03:53:48;38.00;;;20.50;;
58661;SDS011;44432;49.786;22.760;2024-02-15T03:56:19;37.50;;;21.40;;
58661;SDS011;44432;49.786;22.760;2024-02-15T03:58:50;38.80;;;22.20;;
58661;SDS011;44432;49.786;22.760;2024-02-15T04:01:21;42.50;;;21.80;;
58661;SDS011;44432;49.786;22.760;2024-02-15T04:03:52;39.00;;;21.00;;
58661;SDS011;44432;49.786;22.760;2024-02-15T04:06:23;41.40;;;22.00;;
58661;SDS011;44432;49.786;22.760;2024-02-15T04:08:58;41.70;;;21.90;;
58661;SDS011;44432;49.786;22.760;2024-02-15T04:11:29;42.80;;;20.50;;
58661;SDS011;44432;49.786;22.760;2024-02-15T04:14:01;38.10;;;22.50;;
58661;SDS011;44432;49.786;22.760;2024-02-15T04:16:32;36.80;;;21.70;;
58661;SDS011;44432;49.786;22.760;2024-02-15T04:19:03;46.90;;;20.70;;
58661;SDS011;44432;49.786;22.760;2024-02-15T04:21:34;39.10;;;21.30;;
58661;SDS011;44432;49.786;22.760;2024-02-15T04:24:06;37.90;;;21.20;;
58661;SDS011;44432;49.786;22.760;2024-02-15T04:26:38;36.20;;;20.90;;
58661;SDS011;44432;49.786;22.760;2024-02-15T04:29:09;37.50;;;21.50;;
58661;SDS011;44432;49.786;22.760;2024-02-15T04:31:40;48.10;;;22.60;;
58661;SDS011;44432;49.786;22.760;2024-02-15T04:34:11;48.50;;;22.80;;
58661;SDS011;44432;49.786;22.760;2024-02-15T04:36:43;40.10;;;24.50;;
58661;SDS011;44432;49.786;22.760;2024-02-15T04:39:17;46.40;;;22.00;;
58661;SDS011;44432;49.786;22.760;2024-02-15T04:41:51;38.80;;;21.00;;
58661;SDS011;44432;49.786;22.760;2024-02-15T04:44:23;34.50;;;18.90;;
58661;SDS011;44432;49.786;22.760;2024-02-15T04:46:55;33.90;;;19.90;;
58661;SDS011;44432;49.786;22.760;2024-02-15T04:49:26;42.30;;;21.80;;
58661;SDS011;44432;49.786;22.760;2024-02-15T04:51:58;34.20;;;20.20;;
58661;SDS011;44432;49.786;22.760;2024-02-15T04:54:30;39.50;;;20.00;;
58661;SDS011;44432;49.786;22.760;2024-02-15T04:57:01;29.50;;;17.60;;
58661;SDS011;44432;49.786;22.760;2024-02-15T04:59:34;34.20;;;18.10;;
58661;SDS011;44432;49.786;22.760;2024-02-15T05:02:05;29.60;;;17.40;;
58661;SDS011;44432;49.786;22.760;2024-02-15T05:04:37;36.60;;;19.00;;
58661;SDS011;44432;49.786;22.760;2024-02-15T05:07:10;33.10;;;20.00;;
58661;SDS011;44432;49.786;22.760;2024-02-15T05:09:44;40.90;;;20.90;;
58661;SDS011;44432;49.786;22.760;2024-02-15T05:12:22;40.10;;;21.70;;
58661;SDS011;44432;49.786;22.760;2024-02-15T05:14:54;45.60;;;21.70;;
58661;SDS011;44432;49.786;22.760;2024-02-15T05:17:25;36.90;;;20.50;;
58661;SDS011;44432;49.786;22.760;2024-02-15T05:19:57;44.10;;;23.90;;
58661;SDS011;44432;49.786;22.760;2024-02-15T05:22:29;59.20;;;25.10;;
58661;SDS011;44432;49.786;22.760;2024-02-15T05:25:00;56.60;;;25.90;;
58661;SDS011;44432;49.786;22.760;2024-02-15T05:27:33;45.50;;;23.20;;
58661;SDS011;44432;49.786;22.760;2024-02-15T05:30:05;41.40;;;21.30;;
58661;SDS011;44432;49.786;22.760;2024-02-15T05:32:39;40.60;;;22.80;;
58661;SDS011;44432;49.786;22.760;2024-02-15T05:35:12;39.40;;;22.40;;
58661;SDS011;44432;49.786;22.760;2024-02-15T05:37:42;34.50;;;20.10;;
58661;SDS011;44432;49.786;22.760;2024-02-15T05:40:14;38.50;;;20.80;;
58661;SDS011;44432;49.786;22.760;2024-02-15T05:42:47;34.70;;;21.00;;
58661;SDS011;44432;49.786;22.760;2024-02-15T05:45:30;35.20;;;21.40;;
58661;SDS011;44432;49.786;22.760;2024-02-15T05:48:07;40.60;;;22.10;;
58661;SDS011;44432;49.786;22.760;2024-02-15T05:50:40;38.20;;;22.40;;
58661;SDS011;44432;49.786;22.760;2024-02-15T05:53:11;49.30;;;25.00;;
58661;SDS011;44432;49.786;22.760;2024-02-15T05:55:42;47.10;;;23.40;;
58661;SDS011;44432;49.786;22.760;2024-02-15T05:58:13;48.50;;;25.00;;
58661;SDS011;44432;49.786;22.760;2024-02-15T06:00:44;48.80;;;24.90;;
58661;SDS011;44432;49.786;22.760;2024-02-15T06:03:17;48.40;;;25.80;;
58661;SDS011;44432;49.786;22.760;2024-02-15T06:05:50;52.70;;;26.50;;
58661;SDS011;44432;49.786;22.760;2024-02-15T06:08:26;39.30;;;24.90;;
58661;SDS011;44432;49.786;22.760;2024-02-15T06:10:58;54.70;;;30.50;;
58661;SDS011;44432;49.786;22.760;2024-02-15T06:13:30;66.60;;;33.40;;
58661;SDS011;44432;49.786;22.760;2024-02-15T06:16:05;67.70;;;35.70;;
58661;SDS011;44432;49.786;22.760;2024-02-15T06:18:37;61.80;;;31.10;;
58661;SDS011;44432;49.786;22.760;2024-02-15T06:21:08;70.60;;;35.70;;
58661;SDS011;44432;49.786;22.760;2024-02-15T06:23:39;70.10;;;35.50;;
58661;SDS011;44432;49.786;22.760;2024-02-15T06:26:10;75.00;;;36.30;;
58661;SDS011;44432;49.786;22.760;2024-02-15T06:28:41;71.10;;;34.60;;
58661;SDS011;44432;49.786;22.760;2024-02-15T06:31:30;61.00;;;34.00;;
58661;SDS011;44432;49.786;22.760;2024-02-15T06:34:19;59.60;;;28.70;;
58661;SDS011;44432;49.786;22.760;2024-02-15T06:37:08;44.90;;;24.40;;
58661;SDS011;44432;49.786;22.760;2024-02-15T06:39:57;45.50;;;24.90;;
58661;SDS011;44432;49.786;22.760;2024-02-15T06:42:27;53.30;;;26.10;;
58661;SDS011;44432;49.786;22.760;2024-02-15T06:45:01;39.30;;;24.50;;
58661;SDS011;44432;49.786;22.760;2024-02-15T06:47:35;40.00;;;25.10;;
58661;SDS011;44432;49.786;22.760;2024-02-15T06:50:06;40.60;;;25.10;;
58661;SDS011;44432;49.786;22.760;2024-02-15T06:52:38;51.60;;;27.20;;
58661;SDS011;44432;49.786;22.760;2024-02-15T06:55:09;57.20;;;31.10;;
58661;SDS011;44432;49.786;22.760;2024-02-15T06:57:42;57.40;;;30.50;;
58661;SDS011;44432;49.786;22.760;2024-02-15T07:00:14;64.90;;;35.70;;
58661;SDS011;44432;49.786;22.760;2024-02-15T07:02:46;74.10;;;38.00;;
58661;SDS011;44432;49.786;22.760;2024-02-15T07:05:17;74.60;;;45.80;;
58661;SDS011;44432;49.786;22.760;2024-02-15T07:07:48;77.70;;;46.30;;
58661;SDS011;44432;49.786;22.760;2024-02-15T07:10:23;85.00;;;44.40;;
58661;SDS011;44432;49.786;22.760;2024-02-15T07:12:54;81.20;;;40.70;;
58661;SDS011;44432;49.786;22.760;2024-02-15T07:15:24;77.00;;;39.90;;
58661;SDS011;44432;49.786;22.760;2024-02-15T07:17:55;70.00;;;40.80;;
58661;SDS011;44432;49.786;22.760;2024-02-15T07:20:26;68.40;;;41.00;;
58661;SDS011;44432;49.786;22.760;2024-02-15T07:22:58;72.60;;;38.10;;
58661;SDS011;44432;49.786;22.760;2024-02-15T07:25:29;68.80;;;36.50;;
58661;SDS011;44432;49.786;22.760;2024-02-15T07:28:00;68.70;;;35.10;;
58661;SDS011;44432;49.786;22.760;2024-02-15T07:30:32;64.00;;;33.80;;
58661;SDS011;44432;49.786;22.760;2024-02-15T07:33:05;70.40;;;33.10;;
58661;SDS011;44432;49.786;22.760;2024-02-15T07:35:35;51.60;;;29.00;;
58661;SDS011;44432;49.786;22.760;2024-02-15T07:38:06;50.10;;;28.80;;
58661;SDS011;44432;49.786;22.760;2024-02-15T07:40:38;64.20;;;31.70;;
58661;SDS011;44432;49.786;22.760;2024-02-15T07:43:09;60.50;;;30.40;;
58661;SDS011;44432;49.786;22.760;2024-02-15T07:45:40;57.50;;;28.20;;
58661;SDS011;44432;49.786;22.760;2024-02-15T07:48:11;52.40;;;28.20;;
58661;SDS011;44432;49.786;22.760;2024-02-15T07:50:42;64.80;;;27.40;;
58661;SDS011;44432;49.786;22.760;2024-02-15T07:53:13;56.70;;;23.90;;
58661;SDS011;44432;49.786;22.760;2024-02-15T07:55:44;44.60;;;22.80;;
58661;SDS011;44432;49.786;22.760;2024-02-15T07:58:16;45.60;;;23.80;;
58661;SDS011;44432;49.786;22.760;2024-02-15T08:00:47;46.70;;;23.70;;
58661;SDS011;44432;49.786;22.760;2024-02-15T08:03:18;49.70;;;23.50;;
58661;SDS011;44432;49.786;22.760;2024-02-15T08:05:49;45.00;;;26.30;;
58661;SDS011;44432;49.786;22.760;2024-02-15T08:08:20;50.60;;;25.70;;
58661;SDS011;44432;49.786;22.760;2024-02-15T08:10:51;48.10;;;25.20;;
58661;SDS011;44432;49.786;22.760;2024-02-15T08:13:22;47.20;;;24.70;;
58661;SDS011;44432;49.786;22.760;2024-02-15T08:15:57;42.70;;;25.40;;
58661;SDS011;44432;49.786;22.760;2024-02-15T08:18:27;42.50;;;22.60;;
58661;SDS011;44432;49.786;22.760;2024-02-15T08:20:58;34.00;;;19.60;;
58661;SDS011;44432;49.786;22.760;2024-02-15T08:23:29;37.70;;;20.00;;
58661;SDS011;44432;49.786;22.760;2024-02-15T08:26:00;35.30;;;19.80;;
58661;SDS011;44432;49.786;22.760;2024-02-15T08:28:31;35.10;;;20.00;;
58661;SDS011;44432;49.786;22.760;2024-02-15T08:31:02;37.30;;;20.70;;
58661;SDS011;44432;49.786;22.760;2024-02-15T08:33:33;37.30;;;18.10;;
58661;SDS011;44432;49.786;22.760;2024-02-15T08:36:04;39.10;;;18.00;;
58661;SDS011;44432;49.786;22.760;2024-02-15T08:38:38;32.60;;;15.70;;
58661;SDS011;44432;49.786;22.760;2024-02-15T08:41:09;23.00;;;8.50;;
58661;SDS011;44432;49.786;22.760;2024-02-15T08:43:41;16.30;;;6.80;;
58661;SDS011;44432;49.786;22.760;2024-02-15T08:46:12;15.60;;;7.20;;
58661;SDS011;44432;49.786;22.760;2024-02-15T08:48:43;13.30;;;6.90;;
58661;SDS011;44432;49.786;22.760;2024-02-15T08:51:14;15.60;;;8.60;;
58661;SDS011;44432;49.786;22.760;2024-02-15T08:53:45;15.70;;;8.40;;
58661;SDS011;44432;49.786;22.760;2024-02-15T08:56:16;16.70;;;9.20;;
58661;SDS011;44432;49.786;22.760;2024-02-15T08:58:47;27.40;;;14.50;;
58661;SDS011;44432;49.786;22.760;2024-02-15T09:01:18;23.90;;;13.00;;
58661;SDS011;44432;49.786;22.760;2024-02-15T09:03:49;29.40;;;11.10;;
58661;SDS011;44432;49.786;22.760;2024-02-15T09:06:19;23.00;;;10.60;;
58661;SDS011;44432;49.786;22.760;2024-02-15T09:08:51;16.60;;;9.30;;
58661;SDS011;44432;49.786;22.760;2024-02-15T09:11:22;14.00;;;8.30;;
58661;SDS011;44432;49.786;22.760;2024-02-15T09:13:57;19.50;;;7.30;;
58661;SDS011;44432;49.786;22.760;2024-02-15T09:16:28;16.70;;;6.90;;
58661;SDS011;44432;49.786;22.760;2024-02-15T09:18:59;11.40;;;6.10;;
58661;SDS011;44432;49.786;22.760;2024-02-15T09:21:30;11.60;;;6.60;;
58661;SDS011;44432;49.786;22.760;2024-02-15T09:24:02;15.30;;;8.40;;
58661;SDS011;44432;49.786;22.760;2024-02-15T09:26:34;18.40;;;8.30;;
58661;SDS011;44432;49.786;22.760;2024-02-15T09:29:05;11.80;;;7.10;;
58661;SDS011;44432;49.786;22.760;2024-02-15T09:31:35;14.40;;;7.00;;
58661;SDS011;44432;49.786;22.760;2024-02-15T09:34:08;16.50;;;7.10;;
58661;SDS011;44432;49.786;22.760;2024-02-15T09:36:43;14.40;;;7.50;;
58661;SDS011;44432;49.786;22.760;2024-02-15T09:39:14;20.90;;;8.80;;
58661;SDS011;44432;49.786;22.760;2024-02-15T09:41:45;18.90;;;10.00;;
58661;SDS011;44432;49.786;22.760;2024-02-15T09:44:21;23.60;;;9.10;;
58661;SDS011;44432;49.786;22.760;2024-02-15T09:46:59;15.00;;;7.50;;
58661;SDS011;44432;49.786;22.760;2024-02-15T09:49:35;14.50;;;7.60;;
58661;SDS011;44432;49.786;22.760;2024-02-15T09:52:07;14.80;;;7.50;;
58661;SDS011;44432;49.786;22.760;2024-02-15T09:54:40;15.50;;;7.20;;
58661;SDS011;44432;49.786;22.760;2024-02-15T09:57:12;16.20;;;7.30;;
58661;SDS011;44432;49.786;22.760;2024-02-15T09:59:43;17.70;;;8.30;;
58661;SDS011;44432;49.786;22.760;2024-02-15T10:02:14;19.00;;;8.50;;
58661;SDS011;44432;49.786;22.760;2024-02-15T10:04:46;23.30;;;8.60;;
58661;SDS011;44432;49.786;22.760;2024-02-15T10:07:18;16.40;;;9.40;;
58661;SDS011;44432;49.786;22.760;2024-02-15T10:09:49;16.00;;;8.30;;
58661;SDS011;44432;49.786;22.760;2024-02-15T10:12:20;17.90;;;8.80;;
58661;SDS011;44432;49.786;22.760;2024-02-15T10:14:51;26.80;;;9.40;;
58661;SDS011;44432;49.786;22.760;2024-02-15T10:17:22;18.20;;;9.00;;
58661;SDS011;44432;49.786;22.760;2024-02-15T10:22:38;17.50;;;7.30;;
58661;SDS011;44432;49.786;22.760;2024-02-15T10:25:13;16.50;;;7.90;;
58661;SDS011;44432;49.786;22.760;2024-02-15T10:27:44;26.60;;;12.20;;
58661;SDS011;44432;49.786;22.760;2024-02-15T10:30:16;16.50;;;8.40;;
58661;SDS011;44432;49.786;22.760;2024-02-15T10:35:20;18.50;;;7.90;;
58661;SDS011;44432;49.786;22.760;2024-02-15T10:37:51;14.90;;;8.60;;
58661;SDS011;44432;49.786;22.760;2024-02-15T10:40:33;15.00;;;8.60;;
58661;SDS011;44432;49.786;22.760;2024-02-15T10:43:04;15.40;;;8.60;;
58661;SDS011;44432;49.786;22.760;2024-02-15T10:45:37;13.90;;;7.80;;
58661;SDS011;44432;49.786;22.760;2024-02-15T10:48:09;36.20;;;9.90;;
58661;SDS011;44432;49.786;22.760;2024-02-15T10:50:41;15.30;;;8.40;;
58661;SDS011;44432;49.786;22.760;2024-02-15T10:53:19;25.30;;;8.90;;
58661;SDS011;44432;49.786;22.760;2024-02-15T10:55:57;12.20;;;7.50;;
58661;SDS011;44432;49.786;22.760;2024-02-15T10:58:39;25.00;;;8.90;;
58661;SDS011;44432;49.786;22.760;2024-02-15T11:01:17;17.30;;;9.60;;
58661;SDS011;44432;49.786;22.760;2024-02-15T11:03:51;14.90;;;8.10;;
58661;SDS011;44432;49.786;22.760;2024-02-15T11:06:27;14.20;;;8.00;;
58661;SDS011;44432;49.786;22.760;2024-02-15T11:08:59;19.30;;;11.30;;
58661;SDS011;44432;49.786;22.760;2024-02-15T11:11:31;15.00;;;8.80;;
58661;SDS011;44432;49.786;22.760;2024-02-15T11:16:59;14.80;;;8.20;;
58661;SDS011;44432;49.786;22.760;2024-02-15T11:19:44;12.50;;;8.50;;
58661;SDS011;44432;49.786;22.760;2024-02-15T11:22:15;15.90;;;8.50;;
58661;SDS011;44432;49.786;22.760;2024-02-15T11:24:47;16.90;;;8.00;;
58661;SDS011;44432;49.786;22.760;2024-02-15T11:27:26;17.20;;;8.80;;
58661;SDS011;44432;49.786;22.760;2024-02-15T11:29:58;19.20;;;8.70;;
58661;SDS011;44432;49.786;22.760;2024-02-15T11:32:36;28.90;;;14.50;;
58661;SDS011;44432;49.786;22.760;2024-02-15T11:35:12;19.30;;;10.30;;
58661;SDS011;44432;49.786;22.760;2024-02-15T11:37:53;25.40;;;10.20;;
58661;SDS011;44432;49.786;22.760;2024-02-15T11:45:05;27.60;;;9.70;;
58661;SDS011;44432;49.786;22.760;2024-02-15T11:47:37;20.50;;;10.20;;
58661;SDS011;44432;49.786;22.760;2024-02-15T11:50:10;21.40;;;10.30;;
58661;SDS011;44432;49.786;22.760;2024-02-15T11:52:43;27.40;;;11.80;;
58661;SDS011;44432;49.786;22.760;2024-02-15T11:55:19;30.10;;;14.90;;
58661;SDS011;44432;49.786;22.760;2024-02-15T11:57:57;22.90;;;11.60;;
58661;SDS011;44432;49.786;22.760;2024-02-15T12:00:33;22.40;;;10.10;;
58661;SDS011;44432;49.786;22.760;2024-02-15T12:03:22;24.60;;;12.20;;
58661;SDS011;44432;49.786;22.760;2024-02-15T12:06:11;17.80;;;11.50;;
58661;SDS011;44432;49.786;22.760;2024-02-15T12:09:03;25.30;;;13.20;;
58661;SDS011;44432;49.786;22.760;2024-02-15T12:11:58;30.00;;;12.80;;
58661;SDS011;44432;49.786;22.760;2024-02-15T12:14:47;29.50;;;15.40;;
58661;SDS011;44432;49.786;22.760;2024-02-15T12:17:35;23.40;;;14.00;;
58661;SDS011;44432;49.786;22.760;2024-02-15T12:20:24;28.30;;;15.00;;
58661;SDS011;44432;49.786;22.760;2024-02-15T12:22:56;23.90;;;14.00;;
58661;SDS011;44432;49.786;22.760;2024-02-15T12:25:28;116.10;;;24.10;;
58661;SDS011;44432;49.786;22.760;2024-02-15T12:28:01;35.00;;;14.90;;
58661;SDS011;44432;49.786;22.760;2024-02-15T12:30:34;39.50;;;13.80;;
58661;SDS011;44432;49.786;22.760;2024-02-15T12:33:11;28.20;;;14.00;;
58661;SDS011;44432;49.786;22.760;2024-02-15T12:35:48;30.80;;;14.20;;
58661;SDS011;44432;49.786;22.760;2024-02-15T12:38:20;31.90;;;14.60;;
58661;SDS011;44432;49.786;22.760;2024-02-15T12:40:51;25.60;;;13.20;;
58661;SDS011;44432;49.786;22.760;2024-02-15T12:43:22;23.20;;;14.60;;
58661;SDS011;44432;49.786;22.760;2024-02-15T12:48:25;25.80;;;14.50;;
58661;SDS011;44432;49.786;22.760;2024-02-15T12:50:56;37.20;;;15.30;;
58661;SDS011;44432;49.786;22.760;2024-02-15T12:53:42;42.10;;;15.90;;
58661;SDS011;44432;49.786;22.760;2024-02-15T12:56:20;28.20;;;14.40;;
58661;SDS011;44432;49.786;22.760;2024-02-15T12:58:51;27.30;;;15.30;;
58661;SDS011;44432;49.786;22.760;2024-02-15T13:01:23;28.90;;;14.40;;
58661;SDS011;44432;49.786;22.760;2024-02-15T13:03:56;29.40;;;15.60;;
58661;SDS011;44432;49.786;22.760;2024-02-15T13:06:28;29.60;;;18.00;;
58661;SDS011;44432;49.786;22.760;2024-02-15T13:09:02;44.20;;;20.50;;
58661;SDS011;44432;49.786;22.760;2024-02-15T13:11:34;32.20;;;15.70;;
58661;SDS011;44432;49.786;22.760;2024-02-15T13:14:05;32.80;;;15.20;;
58661;SDS011;44432;49.786;22.760;2024-02-15T13:16:38;29.90;;;16.50;;
58661;SDS011;44432;49.786;22.760;2024-02-15T13:19:10;34.70;;;14.70;;
58661;SDS011;44432;49.786;22.760;2024-02-15T13:21:41;29.60;;;12.90;;
58661;SDS011;44432;49.786;22.760;2024-02-15T13:24:12;35.50;;;14.00;;
58661;SDS011;44432;49.786;22.760;2024-02-15T13:26:43;20.40;;;13.20;;
58661;SDS011;44432;49.786;22.760;2024-02-15T13:29:15;29.30;;;13.50;;
58661;SDS011;44432;49.786;22.760;2024-02-15T13:31:46;32.90;;;14.80;;
58661;SDS011;44432;49.786;22.760;2024-02-15T13:34:18;41.90;;;20.60;;
58661;SDS011;44432;49.786;22.760;2024-02-15T13:36:50;28.40;;;13.70;;
58661;SDS011;44432;49.786;22.760;2024-02-15T13:39:23;34.30;;;15.30;;
58661;SDS011;44432;49.786;22.760;2024-02-15T13:42:01;37.20;;;14.50;;
58661;SDS011;44432;49.786;22.760;2024-02-15T13:44:32;30.20;;;15.40;;
58661;SDS011;44432;49.786;22.760;2024-02-15T13:47:05;33.00;;;13.80;;
58661;SDS011;44432;49.786;22.760;2024-02-15T13:49:37;26.50;;;12.90;;
58661;SDS011;44432;49.786;22.760;2024-02-15T13:52:08;27.90;;;13.60;;
58661;SDS011;44432;49.786;22.760;2024-02-15T13:54:38;29.20;;;13.40;;
58661;SDS011;44432;49.786;22.760;2024-02-15T13:57:10;24.00;;;13.20;;
58661;SDS011;44432;49.786;22.760;2024-02-15T13:59:42;20.50;;;11.20;;
58661;SDS011;44432;49.786;22.760;2024-02-15T14:02:12;26.10;;;12.50;;
58661;SDS011;44432;49.786;22.760;2024-02-15T14:04:43;23.20;;;12.90;;
58661;SDS011;44432;49.786;22.760;2024-02-15T14:07:14;27.70;;;13.60;;
58661;SDS011;44432;49.786;22.760;2024-02-15T14:09:45;36.40;;;15.10;;
58661;SDS011;44432;49.786;22.760;2024-02-15T14:12:16;27.60;;;15.20;;
58661;SDS011;44432;49.786;22.760;2024-02-15T14:14:47;32.30;;;16.40;;
58661;SDS011;44432;49.786;22.760;2024-02-15T14:17:18;24.00;;;14.30;;
58661;SDS011;44432;49.786;22.760;2024-02-15T14:19:48;34.60;;;16.10;;
58661;SDS011;44432;49.786;22.760;2024-02-15T14:22:20;35.40;;;19.00;;
58661;SDS011;44432;49.786;22.760;2024-02-15T14:24:51;43.10;;;18.00;;
58661;SDS011;44432;49.786;22.760;2024-02-15T14:27:22;28.80;;;15.00;;
58661;SDS011;44432;49.786;22.760;2024-02-15T14:29:53;26.70;;;14.80;;
58661;SDS011;44432;49.786;22.760;2024-02-15T14:32:41;27.30;;;13.90;;
58661;SDS011;44432;49.786;22.760;2024-02-15T14:35:32;30.80;;;16.20;;
58661;SDS011;44432;49.786;22.760;2024-02-15T14:38:06;26.70;;;16.30;;
58661;SDS011;44432;49.786;22.760;2024-02-15T14:40:39;30.60;;;16.80;;
58661;SDS011;44432;49.786;22.760;2024-02-15T14:43:12;31.90;;;15.10;;
58661;SDS011;44432;49.786;22.760;2024-02-15T14:45:45;27.30;;;14.90;;
58661;SDS011;44432;49.786;22.760;2024-02-15T14:48:16;27.80;;;14.40;;
58661;SDS011;44432;49.786;22.760;2024-02-15T14:50:48;21.90;;;13.50;;
58661;SDS011;44432;49.786;22.760;2024-02-15T14:53:20;35.60;;;18.50;;
58661;SDS011;44432;49.786;22.760;2024-02-15T14:55:51;29.70;;;16.70;;
58661;SDS011;44432;49.786;22.760;2024-02-15T14:58:22;39.90;;;17.20;;
58661;SDS011;44432;49.786;22.760;2024-02-15T15:00:53;25.40;;;14.20;;
58661;SDS011;44432;49.786;22.760;2024-02-15T15:03:25;28.30;;;15.20;;